sensor_id;sensor_type;location;lat;lon;timestamp;P1;durP1;ratioP1;P2;durP2;ratioP2
39266;SDS011;24967;51.154;13.812;2023-10-09T00:01:40;6.30;;;3.13;;
39266;SDS011;24967;51.154;13.812;2023-10-09T00:04:09;6.57;;;3.22;;
39266;SDS011;24967;51.154;13.812;2023-10-09T00:06:36;3.47;;;3.08;;
39266;SDS011;24967;51.154;13.812;2023-10-09T00:09:03;3.25;;;2.85;;
39266;SDS011;24967;51.154;13.812;2023-10-09T00:11:42;8.38;;;3.10;;
39266;SDS011;24967;51.154;13.812;2023-10-09T00:14:09;5.20;;;3.22;;
39266;SDS011;24967;51.154;13.812;2023-10-09T00:16:36;4.68;;;3.42;;
39266;SDS011;24967;51.154;13.812;2023-10-09T00:19:10;8.85;;;3.53;;
39266;SDS011;24967;51.154;13.812;2023-10-09T00:21:43;6.40;;;3.60;;
39266;SDS011;24967;51.154;13.812;2023-10-09T00:24:10;5.20;;;3.10;;
39266;SDS011;24967;51.154;13.812;2023-10-09T00:26:42;6.53;;;3.42;;
39266;SDS011;24967;51.154;13.812;2023-10-09T00:29:11;4.57;;;3.08;;
39266;SDS011;24967;51.154;13.812;2023-10-09T00:31:46;4.22;;;3.53;;
39266;SDS011;24967;51.154;13.812;2023-10-09T00:34:21;9.13;;;3.75;;
39266;SDS011;24967;51.154;13.812;2023-10-09T00:36:51;5.65;;;3.63;;
39266;SDS011;24967;51.154;13.812;2023-10-09T00:39:19;6.55;;;3.15;;
39266;SDS011;24967;51.154;13.812;2023-10-09T00:42:09;7.97;;;3.63;;
39266;SDS011;24967;51.154;13.812;2023-10-09T00:44:39;8.00;;;3.35;;
39266;SDS011;24967;51.154;13.812;2023-10-09T00:47:07;5.07;;;3.22;;
39266;SDS011;24967;51.154;13.812;2023-10-09T00:49:52;7.78;;;3.40;;
39266;SDS011;24967;51.154;13.812;2023-10-09T00:52:26;5.53;;;3.40;;
39266;SDS011;24967;51.154;13.812;2023-10-09T00:54:58;6.40;;;2.95;;
39266;SDS011;24967;51.154;13.812;2023-10-09T00:57:33;6.22;;;3.65;;
39266;SDS011;24967;51.154;13.812;2023-10-09T01:00:05;5.95;;;3.40;;
39266;SDS011;24967;51.154;13.812;2023-10-09T01:02:48;7.78;;;2.83;;
39266;SDS011;24967;51.154;13.812;2023-10-09T01:05:25;6.45;;;2.83;;
39266;SDS011;24967;51.154;13.812;2023-10-09T01:07:53;4.85;;;3.20;;
39266;SDS011;24967;51.154;13.812;2023-10-09T01:10:23;5.07;;;3.20;;
39266;SDS011;24967;51.154;13.812;2023-10-09T01:12:58;5.03;;;2.72;;
39266;SDS011;24967;51.154;13.812;2023-10-09T01:15:25;5.82;;;2.75;;
39266;SDS011;24967;51.154;13.812;2023-10-09T01:18:08;2.90;;;2.67;;
39266;SDS011;24967;51.154;13.812;2023-10-09T01:20:37;5.40;;;3.38;;
39266;SDS011;24967;51.154;13.812;2023-10-09T01:23:11;3.72;;;2.70;;
39266;SDS011;24967;51.154;13.812;2023-10-09T01:25:38;4.78;;;2.65;;
39266;SDS011;24967;51.154;13.812;2023-10-09T01:28:14;3.40;;;2.88;;
39266;SDS011;24967;51.154;13.812;2023-10-09T01:30:42;4.80;;;2.83;;
39266;SDS011;24967;51.154;13.812;2023-10-09T01:33:09;9.95;;;3.00;;
39266;SDS011;24967;51.154;13.812;2023-10-09T01:35:47;7.18;;;2.38;;
39266;SDS011;24967;51.154;13.812;2023-10-09T01:38:17;6.00;;;2.83;;
39266;SDS011;24967;51.154;13.812;2023-10-09T01:40:55;4.95;;;3.00;;
39266;SDS011;24967;51.154;13.812;2023-10-09T01:43:28;4.43;;;2.97;;
39266;SDS011;24967;51.154;13.812;2023-10-09T01:45:59;4.33;;;3.13;;
39266;SDS011;24967;51.154;13.812;2023-10-09T01:48:26;3.95;;;3.15;;
39266;SDS011;24967;51.154;13.812;2023-10-09T01:50:53;5.55;;;2.80;;
39266;SDS011;24967;51.154;13.812;2023-10-09T01:53:21;4.38;;;2.90;;
39266;SDS011;24967;51.154;13.812;2023-10-09T01:55:52;5.18;;;3.10;;
39266;SDS011;24967;51.154;13.812;2023-10-09T01:58:20;7.28;;;3.78;;
39266;SDS011;24967;51.154;13.812;2023-10-09T02:00:50;4.25;;;3.25;;
39266;SDS011;24967;51.154;13.812;2023-10-09T02:03:20;4.55;;;3.00;;
39266;SDS011;24967;51.154;13.812;2023-10-09T02:05:52;5.03;;;3.60;;
39266;SDS011;24967;51.154;13.812;2023-10-09T02:08:25;5.75;;;3.45;;
39266;SDS011;24967;51.154;13.812;2023-10-09T02:10:54;4.30;;;2.97;;
39266;SDS011;24967;51.154;13.812;2023-10-09T02:13:21;7.05;;;3.53;;
39266;SDS011;24967;51.154;13.812;2023-10-09T02:15:55;3.45;;;3.03;;
39266;SDS011;24967;51.154;13.812;2023-10-09T02:18:39;6.70;;;3.20;;
39266;SDS011;24967;51.154;13.812;2023-10-09T02:21:17;4.53;;;3.42;;
39266;SDS011;24967;51.154;13.812;2023-10-09T02:23:54;5.30;;;3.20;;
39266;SDS011;24967;51.154;13.812;2023-10-09T02:26:22;7.97;;;3.30;;
39266;SDS011;24967;51.154;13.812;2023-10-09T02:28:51;3.38;;;3.08;;
39266;SDS011;24967;51.154;13.812;2023-10-09T02:31:23;3.33;;;3.00;;
39266;SDS011;24967;51.154;13.812;2023-10-09T02:33:52;4.30;;;3.70;;
39266;SDS011;24967;51.154;13.812;2023-10-09T02:36:20;4.13;;;3.20;;
39266;SDS011;24967;51.154;13.812;2023-10-09T02:38:47;7.55;;;3.30;;
39266;SDS011;24967;51.154;13.812;2023-10-09T02:41:15;5.63;;;3.03;;
39266;SDS011;24967;51.154;13.812;2023-10-09T02:43:47;3.70;;;2.80;;
39266;SDS011;24967;51.154;13.812;2023-10-09T02:46:16;4.45;;;3.33;;
39266;SDS011;24967;51.154;13.812;2023-10-09T02:48:44;6.15;;;3.15;;
39266;SDS011;24967;51.154;13.812;2023-10-09T02:51:15;5.05;;;2.97;;
39266;SDS011;24967;51.154;13.812;2023-10-09T02:53:56;3.40;;;3.10;;
39266;SDS011;24967;51.154;13.812;2023-10-09T02:56:24;5.78;;;3.15;;
39266;SDS011;24967;51.154;13.812;2023-10-09T02:59:02;5.07;;;3.25;;
39266;SDS011;24967;51.154;13.812;2023-10-09T03:01:31;5.45;;;2.88;;
39266;SDS011;24967;51.154;13.812;2023-10-09T03:03:59;6.30;;;3.40;;
39266;SDS011;24967;51.154;13.812;2023-10-09T03:06:27;4.13;;;3.00;;
39266;SDS011;24967;51.154;13.812;2023-10-09T03:08:56;3.75;;;3.17;;
39266;SDS011;24967;51.154;13.812;2023-10-09T03:11:22;4.30;;;3.15;;
39266;SDS011;24967;51.154;13.812;2023-10-09T03:13:53;4.85;;;3.13;;
39266;SDS011;24967;51.154;13.812;2023-10-09T03:16:21;4.63;;;3.50;;
39266;SDS011;24967;51.154;13.812;2023-10-09T03:18:47;4.57;;;3.58;;
39266;SDS011;24967;51.154;13.812;2023-10-09T03:21:18;5.65;;;3.55;;
39266;SDS011;24967;51.154;13.812;2023-10-09T03:23:45;5.47;;;3.70;;
39266;SDS011;24967;51.154;13.812;2023-10-09T03:26:14;4.05;;;3.60;;
39266;SDS011;24967;51.154;13.812;2023-10-09T03:28:42;6.80;;;4.40;;
39266;SDS011;24967;51.154;13.812;2023-10-09T03:31:11;4.05;;;3.15;;
39266;SDS011;24967;51.154;13.812;2023-10-09T03:33:38;8.70;;;3.65;;
39266;SDS011;24967;51.154;13.812;2023-10-09T03:36:04;5.97;;;4.30;;
39266;SDS011;24967;51.154;13.812;2023-10-09T03:38:34;5.00;;;4.03;;
39266;SDS011;24967;51.154;13.812;2023-10-09T03:41:01;7.15;;;4.00;;
39266;SDS011;24967;51.154;13.812;2023-10-09T03:43:31;6.50;;;4.30;;
39266;SDS011;24967;51.154;13.812;2023-10-09T03:46:02;7.53;;;4.88;;
39266;SDS011;24967;51.154;13.812;2023-10-09T03:48:31;7.10;;;4.20;;
39266;SDS011;24967;51.154;13.812;2023-10-09T03:50:59;5.03;;;4.20;;
39266;SDS011;24967;51.154;13.812;2023-10-09T03:53:33;9.10;;;4.53;;
39266;SDS011;24967;51.154;13.812;2023-10-09T03:56:02;8.13;;;4.35;;
39266;SDS011;24967;51.154;13.812;2023-10-09T03:58:30;6.80;;;4.70;;
39266;SDS011;24967;51.154;13.812;2023-10-09T04:00:58;7.32;;;4.55;;
39266;SDS011;24967;51.154;13.812;2023-10-09T04:03:25;6.45;;;5.10;;
39266;SDS011;24967;51.154;13.812;2023-10-09T04:05:53;6.47;;;4.57;;
39266;SDS011;24967;51.154;13.812;2023-10-09T04:08:20;5.68;;;4.80;;
39266;SDS011;24967;51.154;13.812;2023-10-09T04:10:53;6.95;;;4.68;;
39266;SDS011;24967;51.154;13.812;2023-10-09T04:13:26;9.82;;;5.22;;
39266;SDS011;24967;51.154;13.812;2023-10-09T04:15:58;7.72;;;5.10;;
39266;SDS011;24967;51.154;13.812;2023-10-09T04:18:32;7.40;;;4.80;;
39266;SDS011;24967;51.154;13.812;2023-10-09T04:21:03;7.70;;;5.05;;
39266;SDS011;24967;51.154;13.812;2023-10-09T04:23:43;7.30;;;4.97;;
39266;SDS011;24967;51.154;13.812;2023-10-09T04:26:39;7.88;;;5.47;;
39266;SDS011;24967;51.154;13.812;2023-10-09T04:29:09;5.47;;;4.97;;
39266;SDS011;24967;51.154;13.812;2023-10-09T04:31:43;7.47;;;5.82;;
39266;SDS011;24967;51.154;13.812;2023-10-09T04:34:16;9.18;;;6.15;;
39266;SDS011;24967;51.154;13.812;2023-10-09T04:36:55;7.47;;;6.45;;
39266;SDS011;24967;51.154;13.812;2023-10-09T04:39:26;8.23;;;6.15;;
39266;SDS011;24967;51.154;13.812;2023-10-09T04:42:11;9.32;;;7.13;;
39266;SDS011;24967;51.154;13.812;2023-10-09T04:44:45;10.63;;;6.80;;
39266;SDS011;24967;51.154;13.812;2023-10-09T04:47:46;10.23;;;5.70;;
39266;SDS011;24967;51.154;13.812;2023-10-09T04:50:23;7.60;;;6.50;;
39266;SDS011;24967;51.154;13.812;2023-10-09T04:53:13;7.47;;;6.43;;
39266;SDS011;24967;51.154;13.812;2023-10-09T04:55:47;10.18;;;7.57;;
39266;SDS011;24967;51.154;13.812;2023-10-09T04:58:20;9.38;;;6.70;;
39266;SDS011;24967;51.154;13.812;2023-10-09T05:00:50;9.20;;;7.20;;
39266;SDS011;24967;51.154;13.812;2023-10-09T05:03:30;11.35;;;8.18;;
39266;SDS011;24967;51.154;13.812;2023-10-09T05:06:10;11.35;;;8.45;;
39266;SDS011;24967;51.154;13.812;2023-10-09T05:08:59;11.57;;;7.43;;
39266;SDS011;24967;51.154;13.812;2023-10-09T05:11:34;10.02;;;7.72;;
39266;SDS011;24967;51.154;13.812;2023-10-09T05:14:18;12.18;;;8.07;;
39266;SDS011;24967;51.154;13.812;2023-10-09T05:16:51;9.77;;;7.75;;
39266;SDS011;24967;51.154;13.812;2023-10-09T05:19:26;12.50;;;8.13;;
39266;SDS011;24967;51.154;13.812;2023-10-09T05:22:07;12.70;;;8.03;;
39266;SDS011;24967;51.154;13.812;2023-10-09T05:24:36;11.27;;;7.90;;
39266;SDS011;24967;51.154;13.812;2023-10-09T05:27:12;11.43;;;8.70;;
39266;SDS011;24967;51.154;13.812;2023-10-09T05:29:49;14.68;;;9.00;;
39266;SDS011;24967;51.154;13.812;2023-10-09T05:32:24;14.93;;;8.65;;
39266;SDS011;24967;51.154;13.812;2023-10-09T05:34:54;13.60;;;8.15;;
39266;SDS011;24967;51.154;13.812;2023-10-09T05:37:33;15.70;;;8.32;;
39266;SDS011;24967;51.154;13.812;2023-10-09T05:40:02;10.57;;;7.45;;
39266;SDS011;24967;51.154;13.812;2023-10-09T05:42:47;10.82;;;7.97;;
39266;SDS011;24967;51.154;13.812;2023-10-09T05:45:22;13.27;;;7.90;;
39266;SDS011;24967;51.154;13.812;2023-10-09T05:48:18;25.52;;;14.50;;
39266;SDS011;24967;51.154;13.812;2023-10-09T05:51:01;25.80;;;13.55;;
39266;SDS011;24967;51.154;13.812;2023-10-09T05:53:44;18.40;;;11.38;;
39266;SDS011;24967;51.154;13.812;2023-10-09T05:56:38;13.02;;;8.13;;
39266;SDS011;24967;51.154;13.812;2023-10-09T05:59:21;19.35;;;8.10;;
39266;SDS011;24967;51.154;13.812;2023-10-09T06:02:05;14.30;;;9.73;;
39266;SDS011;24967;51.154;13.812;2023-10-09T06:04:58;12.35;;;8.68;;
39266;SDS011;24967;51.154;13.812;2023-10-09T06:07:25;12.95;;;9.65;;
39266;SDS011;24967;51.154;13.812;2023-10-09T06:10:11;11.95;;;8.23;;
39266;SDS011;24967;51.154;13.812;2023-10-09T06:12:44;11.40;;;8.50;;
39266;SDS011;24967;51.154;13.812;2023-10-09T06:15:21;12.07;;;8.35;;
39266;SDS011;24967;51.154;13.812;2023-10-09T06:18:16;11.77;;;7.80;;
39266;SDS011;24967;51.154;13.812;2023-10-09T06:20:59;11.65;;;7.93;;
39266;SDS011;24967;51.154;13.812;2023-10-09T06:23:55;13.48;;;8.80;;
39266;SDS011;24967;51.154;13.812;2023-10-09T06:26:39;11.90;;;8.98;;
39266;SDS011;24967;51.154;13.812;2023-10-09T06:29:17;13.15;;;9.00;;
39266;SDS011;24967;51.154;13.812;2023-10-09T06:32:00;12.98;;;9.55;;
39266;SDS011;24967;51.154;13.812;2023-10-09T06:34:41;15.57;;;9.85;;
39266;SDS011;24967;51.154;13.812;2023-10-09T06:37:10;29.30;;;17.08;;
39266;SDS011;24967;51.154;13.812;2023-10-09T06:39:59;19.88;;;12.65;;
39266;SDS011;24967;51.154;13.812;2023-10-09T06:42:44;14.52;;;10.73;;
39266;SDS011;24967;51.154;13.812;2023-10-09T06:45:17;14.63;;;10.15;;
39266;SDS011;24967;51.154;13.812;2023-10-09T06:47:46;14.07;;;9.85;;
39266;SDS011;24967;51.154;13.812;2023-10-09T06:50:20;14.20;;;9.48;;
39266;SDS011;24967;51.154;13.812;2023-10-09T06:52:50;18.40;;;10.30;;
39266;SDS011;24967;51.154;13.812;2023-10-09T06:55:23;14.32;;;9.13;;
39266;SDS011;24967;51.154;13.812;2023-10-09T06:57:58;18.98;;;10.90;;
39266;SDS011;24967;51.154;13.812;2023-10-09T07:00:27;17.33;;;11.55;;
39266;SDS011;24967;51.154;13.812;2023-10-09T07:03:11;16.80;;;10.98;;
39266;SDS011;24967;51.154;13.812;2023-10-09T07:05:38;18.23;;;10.02;;
39266;SDS011;24967;51.154;13.812;2023-10-09T07:08:25;15.40;;;10.40;;
39266;SDS011;24967;51.154;13.812;2023-10-09T07:10:57;15.00;;;9.70;;
39266;SDS011;24967;51.154;13.812;2023-10-09T07:13:45;22.55;;;13.68;;
39266;SDS011;24967;51.154;13.812;2023-10-09T07:16:21;19.58;;;12.65;;
39266;SDS011;24967;51.154;13.812;2023-10-09T07:18:53;17.40;;;11.48;;
39266;SDS011;24967;51.154;13.812;2023-10-09T07:21:20;13.27;;;9.85;;
39266;SDS011;24967;51.154;13.812;2023-10-09T07:23:53;15.73;;;9.85;;
39266;SDS011;24967;51.154;13.812;2023-10-09T07:26:22;17.42;;;10.23;;
39266;SDS011;24967;51.154;13.812;2023-10-09T07:29:02;15.00;;;9.55;;
39266;SDS011;24967;51.154;13.812;2023-10-09T07:31:42;14.15;;;8.60;;
39266;SDS011;24967;51.154;13.812;2023-10-09T07:34:10;20.08;;;11.27;;
39266;SDS011;24967;51.154;13.812;2023-10-09T07:36:54;20.33;;;11.68;;
39266;SDS011;24967;51.154;13.812;2023-10-09T07:39:22;17.25;;;10.60;;
39266;SDS011;24967;51.154;13.812;2023-10-09T07:41:48;19.08;;;10.07;;
39266;SDS011;24967;51.154;13.812;2023-10-09T07:44:32;12.30;;;8.73;;
39266;SDS011;24967;51.154;13.812;2023-10-09T07:47:04;13.93;;;9.45;;
39266;SDS011;24967;51.154;13.812;2023-10-09T07:49:43;15.65;;;9.27;;
39266;SDS011;24967;51.154;13.812;2023-10-09T07:52:17;13.73;;;8.38;;
39266;SDS011;24967;51.154;13.812;2023-10-09T07:54:46;12.88;;;9.20;;
39266;SDS011;24967;51.154;13.812;2023-10-09T07:57:18;16.00;;;10.20;;
39266;SDS011;24967;51.154;13.812;2023-10-09T07:59:50;16.88;;;9.85;;
39266;SDS011;24967;51.154;13.812;2023-10-09T08:02:27;14.30;;;9.15;;
39266;SDS011;24967;51.154;13.812;2023-10-09T08:05:01;16.73;;;9.98;;
39266;SDS011;24967;51.154;13.812;2023-10-09T08:07:30;12.95;;;8.75;;
39266;SDS011;24967;51.154;13.812;2023-10-09T08:10:02;15.57;;;8.80;;
39266;SDS011;24967;51.154;13.812;2023-10-09T08:12:47;12.40;;;8.40;;
39266;SDS011;24967;51.154;13.812;2023-10-09T08:15:45;12.00;;;8.40;;
39266;SDS011;24967;51.154;13.812;2023-10-09T08:18:17;12.45;;;8.45;;
39266;SDS011;24967;51.154;13.812;2023-10-09T08:20:53;13.05;;;8.55;;
39266;SDS011;24967;51.154;13.812;2023-10-09T08:23:33;14.82;;;10.07;;
39266;SDS011;24967;51.154;13.812;2023-10-09T08:26:13;10.50;;;8.27;;
39266;SDS011;24967;51.154;13.812;2023-10-09T08:28:39;12.48;;;8.38;;
39266;SDS011;24967;51.154;13.812;2023-10-09T08:31:08;12.32;;;8.60;;
39266;SDS011;24967;51.154;13.812;2023-10-09T08:33:45;12.40;;;8.70;;
39266;SDS011;24967;51.154;13.812;2023-10-09T08:36:21;14.25;;;9.18;;
39266;SDS011;24967;51.154;13.812;2023-10-09T08:38:47;14.90;;;9.38;;
39266;SDS011;24967;51.154;13.812;2023-10-09T08:41:14;13.20;;;8.73;;
39266;SDS011;24967;51.154;13.812;2023-10-09T08:43:47;21.88;;;9.10;;
39266;SDS011;24967;51.154;13.812;2023-10-09T08:46:18;10.90;;;8.63;;
39266;SDS011;24967;51.154;13.812;2023-10-09T08:48:47;14.45;;;9.48;;
39266;SDS011;24967;51.154;13.812;2023-10-09T08:51:14;15.38;;;8.82;;
39266;SDS011;24967;51.154;13.812;2023-10-09T08:53:43;12.95;;;9.52;;
39266;SDS011;24967;51.154;13.812;2023-10-09T08:56:11;12.13;;;8.18;;
39266;SDS011;24967;51.154;13.812;2023-10-09T08:58:40;11.75;;;8.48;;
39266;SDS011;24967;51.154;13.812;2023-10-09T09:01:07;10.60;;;8.27;;
39266;SDS011;24967;51.154;13.812;2023-10-09T09:03:40;12.20;;;8.43;;
39266;SDS011;24967;51.154;13.812;2023-10-09T09:06:10;11.77;;;7.60;;
39266;SDS011;24967;51.154;13.812;2023-10-09T09:08:39;8.98;;;7.20;;
39266;SDS011;24967;51.154;13.812;2023-10-09T09:11:10;10.70;;;7.45;;
39266;SDS011;24967;51.154;13.812;2023-10-09T09:13:40;8.85;;;7.07;;
39266;SDS011;24967;51.154;13.812;2023-10-09T09:16:14;9.48;;;7.05;;
39266;SDS011;24967;51.154;13.812;2023-10-09T09:18:50;8.93;;;7.07;;
39266;SDS011;24967;51.154;13.812;2023-10-09T09:21:26;9.90;;;7.05;;
39266;SDS011;24967;51.154;13.812;2023-10-09T09:23:54;10.20;;;7.40;;
39266;SDS011;24967;51.154;13.812;2023-10-09T09:26:32;9.00;;;7.25;;
39266;SDS011;24967;51.154;13.812;2023-10-09T09:29:02;9.95;;;7.53;;
39266;SDS011;24967;51.154;13.812;2023-10-09T09:31:30;9.32;;;7.93;;
39266;SDS011;24967;51.154;13.812;2023-10-09T09:34:03;12.02;;;8.43;;
39266;SDS011;24967;51.154;13.812;2023-10-09T09:36:38;12.40;;;8.50;;
39266;SDS011;24967;51.154;13.812;2023-10-09T09:41:51;16.75;;;9.98;;
39266;SDS011;24967;51.154;13.812;2023-10-09T09:44:21;16.85;;;10.40;;
39266;SDS011;24967;51.154;13.812;2023-10-09T09:46:51;18.25;;;11.20;;
39266;SDS011;24967;51.154;13.812;2023-10-09T09:49:20;15.68;;;11.70;;
39266;SDS011;24967;51.154;13.812;2023-10-09T09:51:48;19.70;;;11.65;;
39266;SDS011;24967;51.154;13.812;2023-10-09T09:54:14;21.15;;;12.38;;
39266;SDS011;24967;51.154;13.812;2023-10-09T09:56:42;21.65;;;11.70;;
39266;SDS011;24967;51.154;13.812;2023-10-09T09:59:16;22.23;;;13.50;;
39266;SDS011;24967;51.154;13.812;2023-10-09T10:04:22;24.58;;;12.07;;
39266;SDS011;24967;51.154;13.812;2023-10-09T10:06:54;24.90;;;13.43;;
39266;SDS011;24967;51.154;13.812;2023-10-09T10:09:35;22.65;;;13.48;;
39266;SDS011;24967;51.154;13.812;2023-10-09T10:12:06;23.95;;;13.00;;
39266;SDS011;24967;51.154;13.812;2023-10-09T10:17:22;18.08;;;10.93;;
39266;SDS011;24967;51.154;13.812;2023-10-09T10:19:58;18.55;;;10.90;;
39266;SDS011;24967;51.154;13.812;2023-10-09T10:22:27;15.80;;;10.70;;
39266;SDS011;24967;51.154;13.812;2023-10-09T10:24:55;18.83;;;10.23;;
39266;SDS011;24967;51.154;13.812;2023-10-09T10:27:24;15.90;;;9.57;;
39266;SDS011;24967;51.154;13.812;2023-10-09T10:32:57;18.50;;;9.40;;
39266;SDS011;24967;51.154;13.812;2023-10-09T10:35:34;14.65;;;9.27;;
39266;SDS011;24967;51.154;13.812;2023-10-09T10:38:24;11.52;;;8.30;;
39266;SDS011;24967;51.154;13.812;2023-10-09T10:41:07;13.35;;;7.63;;
39266;SDS011;24967;51.154;13.812;2023-10-09T10:43:36;12.32;;;7.20;;
39266;SDS011;24967;51.154;13.812;2023-10-09T10:46:12;12.45;;;8.32;;
39266;SDS011;24967;51.154;13.812;2023-10-09T10:48:49;13.98;;;8.30;;
39266;SDS011;24967;51.154;13.812;2023-10-09T10:51:24;12.23;;;7.90;;
39266;SDS011;24967;51.154;13.812;2023-10-09T10:54:01;10.23;;;7.68;;
39266;SDS011;24967;51.154;13.812;2023-10-09T10:56:51;10.77;;;7.25;;
39266;SDS011;24967;51.154;13.812;2023-10-09T10:59:17;10.93;;;7.07;;
39266;SDS011;24967;51.154;13.812;2023-10-09T11:01:50;10.55;;;8.10;;
39266;SDS011;24967;51.154;13.812;2023-10-09T11:04:18;12.32;;;8.10;;
39266;SDS011;24967;51.154;13.812;2023-10-09T11:07:03;13.75;;;8.52;;
39266;SDS011;24967;51.154;13.812;2023-10-09T11:12:23;11.35;;;8.07;;
39266;SDS011;24967;51.154;13.812;2023-10-09T11:15:03;12.60;;;8.30;;
39266;SDS011;24967;51.154;13.812;2023-10-09T11:17:33;13.55;;;8.48;;
39266;SDS011;24967;51.154;13.812;2023-10-09T11:20:04;12.48;;;7.65;;
39266;SDS011;24967;51.154;13.812;2023-10-09T11:22:50;14.52;;;9.07;;
39266;SDS011;24967;51.154;13.812;2023-10-09T11:25:42;15.50;;;9.02;;
39266;SDS011;24967;51.154;13.812;2023-10-09T11:28:17;16.73;;;9.02;;
39266;SDS011;24967;51.154;13.812;2023-10-09T11:30:54;12.90;;;8.65;;
39266;SDS011;24967;51.154;13.812;2023-10-09T11:33:21;13.23;;;8.60;;
39266;SDS011;24967;51.154;13.812;2023-10-09T11:35:56;13.40;;;8.45;;
39266;SDS011;24967;51.154;13.812;2023-10-09T11:38:23;14.63;;;8.80;;
39266;SDS011;24967;51.154;13.812;2023-10-09T11:40:50;16.42;;;8.63;;
39266;SDS011;24967;51.154;13.812;2023-10-09T11:43:47;14.82;;;8.75;;
39266;SDS011;24967;51.154;13.812;2023-10-09T11:46:19;16.60;;;8.95;;
39266;SDS011;24967;51.154;13.812;2023-10-09T11:49:13;15.07;;;8.45;;
39266;SDS011;24967;51.154;13.812;2023-10-09T11:51:51;14.68;;;8.50;;
39266;SDS011;24967;51.154;13.812;2023-10-09T11:54:55;13.82;;;8.93;;
39266;SDS011;24967;51.154;13.812;2023-10-09T11:57:24;13.70;;;8.82;;
39266;SDS011;24967;51.154;13.812;2023-10-09T11:59:57;13.88;;;9.00;;
39266;SDS011;24967;51.154;13.812;2023-10-09T12:02:25;17.58;;;9.52;;
39266;SDS011;24967;51.154;13.812;2023-10-09T12:04:51;14.48;;;8.95;;
39266;SDS011;24967;51.154;13.812;2023-10-09T12:07:21;13.43;;;8.57;;
39266;SDS011;24967;51.154;13.812;2023-10-09T12:09:48;16.45;;;8.98;;
39266;SDS011;24967;51.154;13.812;2023-10-09T12:12:16;12.52;;;8.45;;
39266;SDS011;24967;51.154;13.812;2023-10-09T12:14:43;14.07;;;9.00;;
39266;SDS011;24967;51.154;13.812;2023-10-09T12:17:11;14.73;;;8.40;;
39266;SDS011;24967;51.154;13.812;2023-10-09T12:19:38;12.07;;;7.80;;
39266;SDS011;24967;51.154;13.812;2023-10-09T12:22:05;11.02;;;7.63;;
39266;SDS011;24967;51.154;13.812;2023-10-09T12:24:35;12.85;;;7.53;;
39266;SDS011;24967;51.154;13.812;2023-10-09T12:27:02;12.70;;;7.82;;
39266;SDS011;24967;51.154;13.812;2023-10-09T12:29:35;16.05;;;8.02;;
39266;SDS011;24967;51.154;13.812;2023-10-09T12:32:01;10.70;;;7.03;;
39266;SDS011;24967;51.154;13.812;2023-10-09T12:34:30;14.85;;;7.18;;
39266;SDS011;24967;51.154;13.812;2023-10-09T12:36:57;13.48;;;6.88;;
39266;SDS011;24967;51.154;13.812;2023-10-09T12:39:26;11.98;;;6.68;;
39266;SDS011;24967;51.154;13.812;2023-10-09T12:41:58;12.90;;;7.40;;
39266;SDS011;24967;51.154;13.812;2023-10-09T12:44:31;12.93;;;6.50;;
39266;SDS011;24967;51.154;13.812;2023-10-09T12:47:04;11.63;;;7.05;;
39266;SDS011;24967;51.154;13.812;2023-10-09T12:49:32;8.23;;;6.13;;
39266;SDS011;24967;51.154;13.812;2023-10-09T12:51:59;10.40;;;6.28;;
39266;SDS011;24967;51.154;13.812;2023-10-09T12:54:25;9.80;;;5.63;;
39266;SDS011;24967;51.154;13.812;2023-10-09T12:56:53;10.48;;;6.30;;
39266;SDS011;24967;51.154;13.812;2023-10-09T12:59:19;8.45;;;5.43;;
39266;SDS011;24967;51.154;13.812;2023-10-09T13:01:47;12.18;;;5.43;;
39266;SDS011;24967;51.154;13.812;2023-10-09T13:04:17;6.13;;;4.97;;
39266;SDS011;24967;51.154;13.812;2023-10-09T13:06:48;8.25;;;5.38;;
39266;SDS011;24967;51.154;13.812;2023-10-09T13:09:18;7.10;;;5.22;;
39266;SDS011;24967;51.154;13.812;2023-10-09T13:11:58;9.23;;;6.00;;
39266;SDS011;24967;51.154;13.812;2023-10-09T13:14:25;7.78;;;5.28;;
39266;SDS011;24967;51.154;13.812;2023-10-09T13:16:52;7.80;;;5.28;;
39266;SDS011;24967;51.154;13.812;2023-10-09T13:19:18;7.47;;;5.13;;
39266;SDS011;24967;51.154;13.812;2023-10-09T13:21:50;8.07;;;5.25;;
39266;SDS011;24967;51.154;13.812;2023-10-09T13:24:17;5.35;;;4.85;;
39266;SDS011;24967;51.154;13.812;2023-10-09T13:26:49;5.45;;;4.68;;
39266;SDS011;24967;51.154;13.812;2023-10-09T13:29:18;7.70;;;4.93;;
39266;SDS011;24967;51.154;13.812;2023-10-09T13:31:47;6.53;;;5.38;;
39266;SDS011;24967;51.154;13.812;2023-10-09T13:34:17;4.70;;;4.28;;
39266;SDS011;24967;51.154;13.812;2023-10-09T13:36:44;6.40;;;4.43;;
39266;SDS011;24967;51.154;13.812;2023-10-09T13:39:17;6.30;;;4.32;;
39266;SDS011;24967;51.154;13.812;2023-10-09T13:41:50;5.15;;;4.38;;
39266;SDS011;24967;51.154;13.812;2023-10-09T13:44:22;5.05;;;4.55;;
39266;SDS011;24967;51.154;13.812;2023-10-09T13:46:51;6.18;;;4.22;;
39266;SDS011;24967;51.154;13.812;2023-10-09T13:49:18;5.45;;;4.38;;
39266;SDS011;24967;51.154;13.812;2023-10-09T13:51:47;6.57;;;5.13;;
39266;SDS011;24967;51.154;13.812;2023-10-09T13:54:16;5.68;;;5.03;;
39266;SDS011;24967;51.154;13.812;2023-10-09T13:56:46;7.78;;;5.57;;
39266;SDS011;24967;51.154;13.812;2023-10-09T13:59:17;5.88;;;5.32;;
39266;SDS011;24967;51.154;13.812;2023-10-09T14:01:46;6.55;;;5.30;;
39266;SDS011;24967;51.154;13.812;2023-10-09T14:04:13;8.90;;;6.18;;
39266;SDS011;24967;51.154;13.812;2023-10-09T14:06:43;7.97;;;5.67;;
39266;SDS011;24967;51.154;13.812;2023-10-09T14:09:11;6.75;;;6.05;;
39266;SDS011;24967;51.154;13.812;2023-10-09T14:11:54;8.48;;;5.70;;
39266;SDS011;24967;51.154;13.812;2023-10-09T14:14:31;9.25;;;6.00;;
39266;SDS011;24967;51.154;13.812;2023-10-09T14:16:58;8.38;;;5.80;;
39266;SDS011;24967;51.154;13.812;2023-10-09T14:19:25;6.50;;;5.70;;
39266;SDS011;24967;51.154;13.812;2023-10-09T14:21:52;7.60;;;5.95;;
39266;SDS011;24967;51.154;13.812;2023-10-09T14:24:18;8.88;;;5.55;;
39266;SDS011;24967;51.154;13.812;2023-10-09T14:26:50;7.28;;;5.97;;
39266;SDS011;24967;51.154;13.812;2023-10-09T14:29:18;7.53;;;6.32;;
39266;SDS011;24967;51.154;13.812;2023-10-09T14:31:44;7.75;;;6.15;;
39266;SDS011;24967;51.154;13.812;2023-10-09T14:34:25;9.98;;;6.03;;
39266;SDS011;24967;51.154;13.812;2023-10-09T14:36:57;9.45;;;6.40;;
39266;SDS011;24967;51.154;13.812;2023-10-09T14:39:25;7.45;;;6.28;;
39266;SDS011;24967;51.154;13.812;2023-10-09T14:41:51;11.45;;;7.22;;
39266;SDS011;24967;51.154;13.812;2023-10-09T14:44:21;9.55;;;7.13;;
39266;SDS011;24967;51.154;13.812;2023-10-09T14:46:48;8.35;;;7.25;;
39266;SDS011;24967;51.154;13.812;2023-10-09T14:49:15;9.40;;;7.85;;
39266;SDS011;24967;51.154;13.812;2023-10-09T14:51:46;9.38;;;7.68;;
39266;SDS011;24967;51.154;13.812;2023-10-09T14:54:13;8.35;;;7.35;;
39266;SDS011;24967;51.154;13.812;2023-10-09T14:56:43;8.85;;;7.57;;
39266;SDS011;24967;51.154;13.812;2023-10-09T14:59:10;8.68;;;6.50;;
39266;SDS011;24967;51.154;13.812;2023-10-09T15:01:39;11.25;;;6.57;;
39266;SDS011;24967;51.154;13.812;2023-10-09T15:04:05;7.32;;;5.30;;
39266;SDS011;24967;51.154;13.812;2023-10-09T15:06:32;6.95;;;5.25;;
39266;SDS011;24967;51.154;13.812;2023-10-09T15:09:00;6.68;;;5.45;;
39266;SDS011;24967;51.154;13.812;2023-10-09T15:11:33;5.55;;;4.75;;
39266;SDS011;24967;51.154;13.812;2023-10-09T15:14:02;9.05;;;5.50;;